Latest Weather Observations for Mackay

IDQ60801

Issued at 7:02 am EST Saturday 1 August 2015 (issued every 30 minutes, with the page automatically refreshed every 10 minutes)

About weather observations | Map of weather stations | Latest weather observations for QLD | Other Formats
Station Details ID: 033119 Name: MACKAY M.O Lat: -21.12 Lon: 149.22 Height: 30.26 m
Data from the previous 72 hours. | See also: Recent months at Mackay
Date/Time
EST
Temp
°C
App
Temp
°C
Dew
Point
Rel
Hum
%
Delta-T
°C
Wind Press
QNH
hPa
Press
MSL
hPa
Rain
since 9 am
mm
Dir
 
Spd
km/h
Gust
km/h
Spd
kts
Gust
kts
01/06:30am 14.1 12.8 13.7 97 0.2 SW 13 17 7 9 1021.7 1021.6 0.0
01/06:00am 14.1 12.8 13.6 97 0.3 SW 13 15 7 8 1021.3 1021.2 0.0
01/05:30am 13.9 12.5 13.4 97 0.3 SW 13 17 7 9 1021.0 1020.9 0.0
01/05:00am 13.9 12.9 13.4 97 0.3 SW 11 15 6 8 1020.8 1020.7 0.0
01/04:30am 14.4 13.1 13.7 96 0.4 SW 13 17 7 9 1020.6 1020.5 0.0
01/04:00am 14.4 13.0 13.5 94 0.5 SW 13 17 7 9 1020.6 1020.5 0.0
01/03:30am 14.1 13.1 13.4 96 0.4 SW 11 15 6 8 1020.5 1020.4 0.0
01/03:00am 14.4 13.0 13.5 94 0.5 SW 13 15 7 8 1020.5 1020.4 0.0
01/02:30am 14.4 13.0 13.5 94 0.5 SW 13 17 7 9 1020.6 1020.5 0.0
01/02:00am 14.7 13.8 13.6 93 0.6 SW 11 15 6 8 1020.7 1020.6 0.0
01/01:30am 14.8 13.8 13.5 92 0.7 SW 11 15 6 8 1020.9 1020.8 0.0
01/01:00am 14.9 13.9 13.3 90 0.9 SW 11 11 6 6 1021.1 1021.0 0.0
01/12:30am 15.1 13.6 13.1 88 1.1 SW 13 15 7 8 1021.5 1021.4 0.0
01/12:00am 15.9 15.6 14.3 90 0.9 SW 9 11 5 6 1021.4 1021.3 0.0
 
Date/Time
EST
Temp
°C
App
Temp
°C
Dew
Point
Rel
Hum
%
Delta-T
°C
Wind Press
QNH
hPa
Press
MSL
hPa
Rain
since 9 am
mm
Dir
 
Spd
km/h
Gust
km/h
Spd
kts
Gust
kts
31/11:30pm 17.0 17.0 15.3 90 1.0 SSW 9 13 5 7 1021.6 1021.5 0.0
31/11:00pm 18.4 19.3 16.7 90 1.0 SE 7 11 4 6 1021.5 1021.4 0.0
31/10:30pm 19.0 19.6 16.8 87 1.3 ESE 9 13 5 7 1021.4 1021.3 0.0
31/10:00pm 18.8 19.4 16.8 88 1.2 ESE 9 13 5 7 1021.3 1021.2 0.0
31/09:30pm 19.0 19.6 16.7 86 1.4 ESE 9 17 5 9 1021.2 1021.1 0.0
31/09:00pm 19.2 19.0 16.7 85 1.5 ESE 13 17 7 9 1021.2 1021.1 0.0
31/08:30pm 19.3 18.9 16.3 83 1.8 ESE 13 20 7 11 1021.1 1021.0 0.0
31/08:00pm 19.1 18.7 16.3 84 1.7 ESE 13 19 7 10 1020.9 1020.8 0.0
31/07:30pm 19.0 18.6 16.1 83 1.7 SE 13 20 7 11 1020.7 1020.6 0.0
31/07:00pm 19.1 18.7 16.3 84 1.7 SE 13 24 7 13 1020.3 1020.2 0.0
31/06:30pm 19.2 18.4 16.0 82 1.9 SE 15 22 8 12 1020.0 1019.9 0.0
31/06:00pm 19.0 18.6 16.1 83 1.7 SE 13 24 7 13 1019.9 1019.8 0.0
31/05:30pm 19.4 18.6 16.0 81 2.0 SE 15 24 8 13 1019.9 1019.8 0.0
31/05:00pm 20.2 19.3 15.8 76 2.6 SE 15 24 8 13 1019.9 1019.8 0.0
31/04:30pm 20.7 19.3 15.5 72 3.1 SE 17 26 9 14 1019.7 1019.6 0.0
31/04:00pm 21.1 19.8 15.7 71 3.2 SE 17 26 9 14 1019.6 1019.5 0.0
31/03:30pm 21.5 20.3 16.0 71 3.3 SE 17 24 9 13 1019.7 1019.6 0.0
31/03:00pm 21.5 20.4 15.3 68 3.7 SSE 15 24 8 13 1019.9 1019.8 0.0
31/02:30pm 22.0 20.1 15.1 65 4.1 SSE 19 32 10 17 1020.2 1020.1 0.0
31/02:00pm 21.9 20.6 15.9 68 3.6 SSE 17 28 9 15 1020.4 1020.3 0.0
31/01:30pm 21.8 20.8 16.7 73 3.1 SE 17 28 9 15 1020.9 1020.8 0.0
31/01:00pm 21.6 20.3 16.7 73 3.0 SSE 19 28 10 15 1021.5 1021.4 0.0
31/12:30pm 21.4 19.9 16.8 75 2.8 SSE 20 30 11 16 1022.0 1021.9 0.0
31/12:00pm 21.3 20.0 16.9 76 2.7 SSE 19 28 10 15 1022.5 1022.4 0.0
31/11:30am 21.1 20.1 16.5 75 2.8 SE 17 26 9 14 1022.9 1022.8 0.0
31/11:00am 21.1 19.5 15.9 72 3.1 SE 19 28 10 15 1023.1 1023.0 0.0
31/10:30am 21.3 20.1 16.0 72 3.2 SSE 17 24 9 13 1023.4 1023.3 0.0
31/10:00am 20.7 20.2 15.8 73 2.9 S 13 20 7 11 1023.4 1023.3 0.0
31/09:30am 19.7 18.3 15.6 77 2.4 S 17 24 9 13 1023.3 1023.2 0.0
31/09:00am 19.1 18.5 15.7 80 2.0 S 13 24 7 13 1023.1 1023.0 0.0
31/08:30am 17.8 17.1 15.4 86 1.4 S 13 20 7 11 1022.9 1022.8 0.0
31/08:00am 16.3 15.3 14.7 90 0.9 SSW 13 17 7 9 1022.9 1022.8 0.0
31/07:30am 14.7 13.5 14.0 96 0.4 SSW 13 17 7 9 1022.6 1022.5 0.0
31/07:00am 14.3 13.0 13.6 96 0.4 SW 13 17 7 9 1022.2 1022.1 0.0
31/06:30am 14.0 12.6 13.5 97 0.3 SW 13 15 7 8 1021.8 1021.7 0.0
31/06:00am 14.1 12.8 13.6 97 0.3 SW 13 17 7 9 1021.2 1021.1 0.0
31/05:30am 14.3 13.0 13.8 97 0.3 SW 13 15 7 8 1021.0 1020.9 0.0
31/05:00am 14.6 13.8 14.1 97 0.3 SW 11 15 6 8 1021.2 1021.1 0.0
31/04:30am 14.9 14.1 14.0 94 0.5 SW 11 15 6 8 1021.2 1021.1 0.0
31/04:00am 15.2 14.1 14.3 94 0.5 SW 13 15 7 8 1021.3 1021.2 0.0
31/03:30am 15.9 14.9 14.7 93 0.7 SW 13 15 7 8 1021.7 1021.6 0.0
31/03:00am 16.3 15.4 14.9 91 0.8 SSW 13 17 7 9 1021.7 1021.6 0.0
31/02:30am 16.6 15.8 15.0 90 0.9 SSW 13 19 7 10 1021.5 1021.4 0.0
31/02:00am 16.6 15.9 15.4 93 0.7 SW 13 15 7 8 1021.7 1021.6 0.0
31/01:30am 17.3 16.4 15.9 91 0.8 S 15 20 8 11 1022.0 1021.9 0.0
31/01:00am 17.4 16.6 16.0 91 0.8 SSE 15 20 8 11 1022.4 1022.3 0.0
31/12:30am 18.0 17.0 16.5 91 0.9 SSE 17 26 9 14 1022.7 1022.6 0.0
31/12:00am 18.1 17.1 16.6 91 0.9 SSE 17 22 9 12 1023.0 1022.9 0.0
 
Date/Time
EST
Temp
°C
App
Temp
°C
Dew
Point
Rel
Hum
%
Delta-T
°C
Wind Press
QNH
hPa
Press
MSL
hPa
Rain
since 9 am
mm
Dir
 
Spd
km/h
Gust
km/h
Spd
kts
Gust
kts
30/11:30pm 18.6 17.6 16.6 88 1.2 S 17 22 9 12 1023.3 1023.2 0.0
30/11:01pm 18.9 18.4 16.9 88 1.2 SSE 15 20 8 11 1023.2 1023.1 0.0
30/11:00pm 18.9 18.4 16.9 88 1.2 SSE 15 20 8 11 1023.2 1023.1 0.0
30/10:30pm 18.5 17.5 16.7 89 1.1 S 17 22 9 12 1023.4 1023.3 0.0
30/10:10pm 18.6 17.4 16.2 86 1.4 SSE 17 24 9 13 1023.4 1023.3 0.0
30/10:00pm 18.6 17.4 16.2 86 1.4 S 17 22 9 12 1023.5 1023.4 0.0
30/09:30pm 18.9 17.3 16.4 85 1.5 SE 20 30 11 16 1023.5 1023.4 0.0
30/09:00pm 18.9 17.3 16.4 85 1.5 SE 20 30 11 16 1023.1 1023.0 0.0
30/08:30pm 19.0 17.2 16.0 83 1.8 SE 20 35 11 19 1022.8 1022.7 0.0
30/08:00pm 19.0 16.6 15.4 79 2.1 SE 22 33 12 18 1022.6 1022.5 0.0
30/07:30pm 19.1 17.4 16.2 83 1.7 SSE 20 30 11 16 1022.6 1022.5 0.0
30/07:00pm 19.2 17.5 16.2 83 1.8 SSE 20 32 11 17 1022.5 1022.4 0.0
30/06:30pm 18.8 17.8 16.5 86 1.4 SSE 17 26 9 14 1022.4 1022.3 0.0
30/06:00pm 18.9 17.3 16.4 85 1.5 SSE 20 30 11 16 1022.0 1021.9 0.0
30/05:30pm 19.1 17.5 16.6 85 1.5 SE 20 33 11 18 1021.7 1021.6 0.0
30/05:00pm 19.6 18.0 16.6 83 1.8 SE 20 33 11 18 1021.5 1021.4 0.0
30/04:30pm 20.0 18.3 16.3 79 2.2 SE 20 30 11 16 1021.5 1021.4 0.0
30/04:00pm 20.8 19.1 16.3 75 2.7 SE 20 33 11 18 1021.6 1021.5 0.0
30/03:30pm 21.4 19.7 16.3 72 3.1 SSE 20 32 11 17 1021.4 1021.3 0.0
30/03:00pm 21.2 19.1 16.2 73 3.0 SE 22 33 12 18 1021.6 1021.5 0.0
30/02:30pm 21.2 18.3 16.2 73 3.0 SSE 26 37 14 20 1022.0 1021.9 0.0
30/02:00pm 20.9 18.4 16.1 74 2.9 SE 24 39 13 21 1022.0 1021.9 0.0
30/01:30pm 20.6 18.0 15.9 74 2.8 SE 24 35 13 19 1022.3 1022.2 0.0
30/01:00pm 20.9 19.1 15.9 73 3.0 SE 20 32 11 17 1022.5 1022.4 0.0
30/12:30pm 20.7 18.4 15.6 72 3.0 SSE 22 33 12 18 1023.0 1022.9 0.0
30/12:00pm 20.7 18.4 15.6 72 3.0 SE 22 33 12 18 1023.5 1023.4 0.0
30/11:30am 20.8 18.5 15.8 73 3.0 SSE 22 37 12 20 1024.0 1023.9 0.0
30/11:00am 20.2 17.9 15.6 75 2.7 SSE 22 35 12 19 1024.4 1024.3 0.0
30/10:30am 19.7 16.6 15.5 77 2.5 SSE 26 35 14 19 1024.5 1024.4 0.0
30/10:00am 19.6 16.0 15.3 76 2.5 SSE 28 43 15 23 1024.7 1024.6 0.0
30/09:30am 19.0 15.7 15.1 78 2.3 SSE 26 37 14 20 1024.8 1024.7 0.0
30/09:00am 17.9 14.8 14.6 81 1.9 SSE 24 35 13 19 1024.6 1024.5 0.0
30/08:30am 17.3 14.5 14.3 82 1.7 SSE 22 35 12 19 1024.4 1024.3 0.0
30/08:00am 17.0 13.4 14.2 83 1.6 S 26 35 14 19 1024.1 1024.0 0.0
30/07:30am 16.7 13.5 14.2 85 1.4 S 24 37 13 20 1024.0 1023.9 0.0
30/07:00am 16.4 13.3 14.5 88 1.1 S 24 35 13 19 1023.6 1023.5 0.0
30/06:30am 16.6 13.9 14.5 87 1.2 S 22 32 12 17 1023.4 1023.3 0.0
30/06:00am 16.6 13.5 14.5 87 1.2 S 24 35 13 19 1023.3 1023.2 0.0
30/05:41am 16.7 14.3 14.4 86 1.3 S 20 28 11 15 1023.2 1023.1 0.0
30/05:30am 16.6 14.2 14.5 87 1.2 S 20 30 11 16 1023.1 1023.0 0.0
30/05:00am 16.6 13.9 14.5 87 1.2 S 22 32 12 17 1023.0 1022.9 0.0
30/04:30am 16.9 13.7 14.3 85 1.5 SSE 24 33 13 18 1022.9 1022.8 0.0
30/04:00am 16.9 14.7 14.8 87 1.2 S 20 28 11 15 1023.0 1022.9 0.0
30/03:30am 16.4 14.9 15.2 93 0.7 S 17 22 9 12 1023.1 1023.0 0.0
30/03:00am 16.7 14.8 15.1 90 0.9 S 19 28 10 15 1023.2 1023.1 0.0
30/02:30am 16.8 14.9 15.2 90 0.9 S 19 24 10 13 1023.4 1023.3 0.0
30/02:00am 17.2 15.3 15.1 87 1.2 S 19 26 10 14 1023.7 1023.6 0.0
30/01:30am 17.2 15.1 15.1 87 1.2 S 20 30 11 16 1024.2 1024.1 0.0
30/01:00am 17.0 15.1 15.3 90 1.0 S 19 26 10 14 1024.5 1024.4 0.0
30/12:30am 16.8 16.1 15.4 91 0.8 S 13 17 7 9 1024.8 1024.7 0.0
30/12:00am 18.7 16.1 15.8 83 1.7 SSE 24 41 13 22 1025.0 1024.9 0.0
 
Date/Time
EST
Temp
°C
App
Temp
°C
Dew
Point
Rel
Hum
%
Delta-T
°C
Wind Press
QNH
hPa
Press
MSL
hPa
Rain
since 9 am
mm
Dir
 
Spd
km/h
Gust
km/h
Spd
kts
Gust
kts
29/11:30pm 18.8 16.1 15.7 82 1.8 SSE 24 35 13 19 1024.9 1024.8 0.0
29/11:00pm 19.1 17.3 15.9 82 1.9 SSE 20 32 11 17 1025.1 1025.0 0.0
29/10:30pm 18.8 17.0 15.9 83 1.7 SSE 20 35 11 19 1025.2 1025.1 0.0
29/10:00pm 18.9 17.2 16.2 84 1.6 SE 20 35 11 19 1025.5 1025.4 0.0
29/09:30pm 19.1 17.3 15.5 79 2.1 SSE 19 30 10 16 1025.5 1025.4 0.0
29/09:00pm 19.1 17.0 15.3 78 2.2 SE 20 33 11 18 1025.6 1025.5 0.0
29/08:30pm 19.1 17.0 15.3 78 2.2 SE 20 32 11 17 1025.6 1025.5 0.0
29/08:00pm 19.2 17.2 15.5 79 2.2 SE 20 33 11 18 1025.5 1025.4 0.0
29/07:30pm 19.3 16.5 15.4 78 2.3 SE 24 39 13 21 1025.1 1025.0 0.0
29/07:00pm 19.2 17.3 15.8 81 2.0 SE 20 33 11 18 1024.7 1024.6 0.0
29/06:30pm 19.2 16.8 15.5 79 2.2 SE 22 35 12 19 1024.4 1024.3 0.0
29/06:00pm 19.2 16.8 15.5 79 2.2 SE 22 33 12 18 1024.2 1024.1 0.0
29/05:30pm 19.4 16.7 14.6 74 2.8 SE 22 37 12 20 1024.0 1023.9 0.0
29/05:00pm 19.6 18.0 15.9 79 2.2 SE 19 32 10 17 1024.0 1023.9 0.0
29/04:30pm 19.9 17.5 15.5 76 2.6 SE 22 33 12 18 1023.7 1023.6 0.0
29/04:00pm 20.3 18.2 15.2 72 3.0 SE 20 32 11 17 1023.5 1023.4 0.0
29/03:30pm 20.5 18.4 15.1 71 3.2 SE 20 37 11 20 1023.5 1023.4 0.0
29/03:00pm 20.4 17.7 14.7 70 3.3 SSE 22 39 12 21 1023.7 1023.6 0.0
29/02:30pm 20.7 16.8 14.5 67 3.6 SSE 28 44 15 24 1023.9 1023.8 0.0
29/02:00pm 20.7 16.9 13.7 64 4.0 SSE 26 41 14 22 1024.0 1023.9 0.0
29/01:30pm 20.6 16.7 13.4 63 4.1 SSE 26 39 14 21 1024.3 1024.2 0.0
29/01:00pm 20.6 16.6 13.0 61 4.3 SSE 26 39 14 21 1024.6 1024.5 0.0
29/12:30pm 20.7 17.2 13.3 62 4.2 SSE 24 41 13 22 1025.1 1025.0 0.0
29/12:00pm 20.3 16.4 13.3 64 4.0 SSE 26 44 14 24 1025.7 1025.6 0.0
29/11:44am 20.1 15.4 13.2 64 3.9 SSE 30 48 16 26 1025.9 1025.8 0.0
29/11:30am 20.0 15.0 13.3 65 3.8 SSE 32 48 17 26 1026.3 1026.2 0.0
29/11:00am 19.8 14.6 13.5 67 3.6 SSE 33 52 18 28 1026.6 1026.5 0.0
29/10:30am 19.5 14.6 13.7 69 3.3 SSE 32 50 17 27 1026.8 1026.7 0.0
29/10:00am 19.4 14.6 14.0 71 3.1 SSE 32 50 17 27 1026.8 1026.7 0.0
29/09:34am 19.0 14.1 13.7 71 3.0 SSE 32 52 17 28 1026.9 1026.8 0.0
29/09:30am 19.2 14.8 14.1 72 2.9 SSE 30 41 16 22 1026.9 1026.8 0.0
29/09:00am 18.8 13.9 13.7 72 2.9 SSE 32 44 17 24 1026.7 1026.6 0.0
29/08:30am 18.5 14.3 13.6 73 2.8 SSE 28 43 15 23 1026.6 1026.5 0.0
29/08:00am 17.7 14.9 13.2 75 2.5 SSE 20 32 11 17 1026.5 1026.4 0.0
29/07:30am 18.1 14.3 13.7 75 2.5 SSE 26 39 14 21 1026.1 1026.0 0.0

Other Formats:

Comma delimited format used in spreadsheet applications
http://www.bom.gov.au/fwo/IDQ60801/IDQ60801.94367.axf

JavaScript Object Notation format (JSON) in row-major order
http://www.bom.gov.au/fwo/IDQ60801/IDQ60801.94367.json